Terminal Aerodrome Forecast
Issued by NWS Albuquerque, NM

Home | Current Version | Previous Version | Text Only | Print | Product List | Glossary On
Versions: 1 2 3 4 5 6 7 8 9 10 11 12
000
FTUS45 KABQ 240500 RRA
TAFABQ
TAF
KABQ 240540Z 2406/2506 34009KT P6SM SKC
     FM241900 31020G30KT P6SM SCT200
     FM250200 34013G20KT P6SM FEW200=

USA.gov is the U.S. government's official web portal to all federal, state and local government web resources and services.